Time;durP1;ratioP1;P1;durP2;ratioP2;P2;SDS_P1;SDS_P2;PMS_P1;PMS_P2;Temp;Humidity;BMP_temperature;BMP_pressure;BME280_temperature;BME280_humidity;BME280_pressure;Samples;Min_cycle;Max_cycle;Signal;HPM_P1;HPM_P2
2022/12/11 00:00:41;;;;;;;67.30;23.87;;;1.90;99.90;;;;;;5075615;28;20028;-78
2022/12/11 00:03:07;;;;;;;72.17;23.40;;;1.90;99.90;;;;;;5075251;28;20093;-79
2022/12/11 00:05:33;;;;;;;82.37;24.23;;;1.90;99.90;;;;;;5092216;28;20494;-79
2022/12/11 00:07:59;;;;;;;76.47;24.43;;;1.80;99.90;;;;;;5092003;28;20020;-78
2022/12/11 00:10:25;;;;;;;67.70;22.63;;;1.90;99.90;;;;;;5075512;28;20024;-79
2022/12/11 00:12:50;;;;;;;80.20;24.90;;;1.90;99.90;;;;;;5075432;28;20365;-79
2022/12/11 00:15:16;;;;;;;77.73;22.87;;;1.90;99.90;;;;;;5091749;28;20039;-78
2022/12/11 00:17:42;;;;;;;81.87;24.00;;;2.00;99.90;;;;;;5092118;28;20480;-78
2022/12/11 00:20:08;;;;;;;86.23;25.13;;;1.90;99.90;;;;;;5108052;28;20032;-79
2022/12/11 00:22:34;;;;;;;67.53;21.93;;;1.90;99.90;;;;;;5092105;28;20028;-79
2022/12/11 00:25:00;;;;;;;71.30;24.87;;;1.90;99.90;;;;;;5092128;28;20072;-78
2022/12/11 00:27:26;;;;;;;70.07;24.30;;;1.90;99.90;;;;;;5075310;28;20072;-78
2022/12/11 00:29:51;;;;;;;77.63;23.40;;;1.90;99.90;;;;;;5075796;28;20396;-78
2022/12/11 00:32:17;;;;;;;67.13;23.40;;;1.90;99.90;;;;;;5058524;28;20078;-78
2022/12/11 00:34:43;;;;;;;68.10;22.33;;;1.90;99.90;;;;;;5075273;28;20032;-78
2022/12/11 00:37:08;;;;;;;70.67;23.10;;;1.90;99.90;;;;;;5091753;28;20036;-79
2022/12/11 00:39:35;;;;;;;71.23;23.30;;;1.90;99.90;;;;;;5092004;28;20423;-78
2022/12/11 00:42:01;;;;;;;72.63;23.37;;;1.90;99.90;;;;;;5091741;28;20089;-78
2022/12/11 00:44:26;;;;;;;70.93;23.13;;;1.90;99.90;;;;;;5091987;28;20028;-79
2022/12/11 00:46:52;;;;;;;68.53;21.87;;;1.90;99.90;;;;;;5091923;28;20032;-79
2022/12/11 00:49:18;;;;;;;64.70;22.57;;;2.00;99.90;;;;;;5075413;28;20031;-78
2022/12/11 00:51:43;;;;;;;65.57;22.20;;;1.90;99.90;;;;;;5074927;28;20434;-79
2022/12/11 00:54:09;;;;;;;77.07;23.77;;;2.00;99.90;;;;;;5074745;28;20124;-79
2022/12/11 00:56:34;;;;;;;58.47;20.90;;;2.00;99.90;;;;;;5108828;28;20123;-79
2022/12/11 00:59:00;;;;;;;64.87;23.07;;;2.00;99.90;;;;;;5091913;28;20096;-79
2022/12/11 01:01:26;;;;;;;68.60;22.53;;;2.00;99.90;;;;;;5074889;28;20033;-79
2022/12/11 01:03:52;;;;;;;65.53;22.77;;;2.10;99.90;;;;;;5108762;28;20391;-79
2022/12/11 01:06:21;;;;;;;65.70;21.77;;;2.10;99.90;;;;;;5091727;28;20594;-79
2022/12/11 01:08:47;;;;;;;61.10;19.90;;;2.10;99.90;;;;;;5093040;28;20024;-78
2022/12/11 01:11:15;;;;;;;67.63;20.30;;;2.10;99.90;;;;;;5091617;28;20028;-79
2022/12/11 01:13:41;;;;;;;66.70;22.90;;;2.20;99.90;;;;;;5091565;28;20032;-79
2022/12/11 01:16:09;;;;;;;67.80;22.37;;;2.10;99.90;;;;;;5092888;28;20036;-78
2022/12/11 01:18:35;;;;;;;73.17;23.80;;;2.10;99.90;;;;;;5091703;28;20039;-79
2022/12/11 01:21:06;;;;;;;66.10;22.50;;;2.20;99.90;;;;;;5108562;28;20028;-79
2022/12/11 01:23:32;;;;;;;73.90;24.73;;;2.10;99.90;;;;;;5091523;28;20060;-79
2022/12/11 01:26:13;;;;;;;75.70;24.10;;;2.10;99.90;;;;;;5091537;28;20024;-79
2022/12/11 01:28:39;;;;;;;74.27;23.70;;;2.10;99.90;;;;;;5091495;28;20033;-79
2022/12/11 01:31:13;;;;;;;61.57;23.90;;;2.10;99.90;;;;;;5093845;28;20031;-79
2022/12/11 01:33:39;;;;;;;;;;;2.10;99.90;;;;;;5096731;28;20036;-79
2022/12/11 01:36:09;;;;;;;74.23;22.40;;;2.10;99.90;;;;;;5095057;28;19904;-79
2022/12/11 01:38:35;;;;;;;81.07;25.43;;;2.10;99.90;;;;;;5094859;28;20030;-79
2022/12/11 01:41:00;;;;;;;70.60;25.30;;;2.10;99.90;;;;;;5094991;28;20044;-78
2022/12/11 01:43:26;;;;;;;70.80;23.93;;;2.20;99.90;;;;;;5061282;28;20043;-78
2022/12/11 01:45:52;;;;;;;75.73;25.77;;;2.10;99.90;;;;;;5078063;28;20032;-78
2022/12/11 01:48:21;;;;;;;70.37;24.63;;;2.00;99.90;;;;;;5095040;28;20099;-78
2022/12/11 01:50:49;;;;;;;74.33;23.43;;;2.00;99.90;;;;;;5094350;28;20043;-77
2022/12/11 01:53:19;;;;;;;64.03;23.63;;;2.00;99.90;;;;;;5094731;28;20118;-78
2022/12/11 01:55:47;;;;;;;82.67;24.17;;;2.00;99.90;;;;;;5094712;28;20024;-80
2022/12/11 01:58:14;;;;;;;70.73;23.70;;;2.00;99.90;;;;;;5095130;28;20024;-80
2022/12/11 02:00:39;;;;;;;69.97;22.63;;;2.00;99.90;;;;;;5095449;28;20111;-78
2022/12/11 02:03:05;;;;;;;71.70;22.50;;;2.00;99.90;;;;;;5096115;28;20121;-78
2022/12/11 02:05:30;;;;;;;85.47;25.83;;;2.00;99.90;;;;;;5079500;28;20024;-77
2022/12/11 02:08:00;;;;;;;71.37;23.10;;;1.90;99.90;;;;;;5079482;28;20047;-78
2022/12/11 02:10:51;;;;;;;88.10;25.33;;;1.90;99.90;;;;;;5097679;28;20032;-78
2022/12/11 02:13:36;;;;;;;84.87;23.60;;;2.00;99.90;;;;;;5099413;28;20039;-78
2022/12/11 02:16:13;;;;;;;91.63;27.17;;;1.90;99.90;;;;;;5095577;28;20089;-78
2022/12/11 02:19:00;;;;;;;89.63;27.33;;;2.00;99.90;;;;;;5094293;28;20498;-78
2022/12/11 02:21:34;;;;;;;86.77;26.73;;;2.00;99.90;;;;;;5094081;28;20077;-78
2022/12/11 02:24:17;;;;;;;73.73;23.70;;;1.90;99.90;;;;;;5094202;28;20155;-79
2022/12/11 02:27:01;;;;;;;85.67;25.67;;;1.90;99.90;;;;;;5095343;28;20426;-78
2022/12/11 02:29:39;;;;;;;59.70;17.65;;;1.90;99.90;;;;;;5094041;28;20438;-78
2022/12/11 02:32:15;;;;;;;84.97;23.40;;;2.00;99.90;;;;;;5095574;28;20061;-79
2022/12/11 02:35:15;;;;;;;81.43;22.67;;;2.00;99.90;;;;;;5094017;28;20549;-78
2022/12/11 02:37:43;;;;;;;77.50;22.50;;;1.90;99.90;;;;;;5095177;28;20566;-78
2022/12/11 02:40:13;;;;;;;81.77;23.30;;;2.00;99.90;;;;;;5095176;28;20016;-78
2022/12/11 02:42:42;;;;;;;74.40;23.13;;;2.00;99.90;;;;;;5092908;28;20024;-79
2022/12/11 02:45:10;;;;;;;71.07;21.77;;;2.00;99.90;;;;;;5093757;28;20111;-80
2022/12/11 02:47:37;;;;;;;80.43;24.37;;;2.00;99.90;;;;;;5093824;28;20487;-80
2022/12/11 02:50:09;;;;;;;80.30;24.27;;;2.10;99.90;;;;;;5110933;28;20066;-78
2022/12/11 02:52:36;;;;;;;72.47;22.93;;;2.00;99.90;;;;;;5093657;28;20046;-80
2022/12/11 02:55:05;;;;;;;82.23;23.67;;;2.00;99.90;;;;;;5093843;28;20468;-79
2022/12/11 02:57:38;;;;;;;80.33;22.73;;;2.10;99.90;;;;;;5094797;28;20024;-79
2022/12/11 03:00:05;;;;;;;83.32;25.55;;;2.10;99.90;;;;;;5093488;28;20468;-79
2022/12/11 03:02:31;;;;;;;76.90;25.17;;;2.10;99.90;;;;;;5094587;28;20376;-79
2022/12/11 03:04:58;;;;;;;83.03;24.73;;;2.10;99.90;;;;;;5093448;28;20036;-79
2022/12/11 03:07:27;;;;;;;80.73;25.07;;;2.10;99.90;;;;;;5094630;28;20020;-79
2022/12/11 03:09:53;;;;;;;72.87;23.27;;;2.10;99.90;;;;;;5093321;28;20056;-79
2022/12/11 03:12:31;;;;;;;81.50;24.73;;;2.10;99.90;;;;;;5093139;28;20101;-79
2022/12/11 03:15:00;;;;;;;74.97;24.40;;;2.10;99.90;;;;;;5094458;28;20039;-79
2022/12/11 03:17:53;;;;;;;79.07;24.70;;;2.20;99.90;;;;;;5110465;28;20032;-79
2022/12/11 03:20:45;;;;;;;84.43;24.23;;;2.20;99.90;;;;;;5092953;28;20028;-79
2022/12/11 03:23:29;;;;;;;74.37;23.53;;;2.10;99.90;;;;;;5092955;28;20049;-79
2022/12/11 03:26:04;;;;;;;70.15;23.08;;;2.20;99.90;;;;;;5093390;28;20020;-79
2022/12/11 03:28:58;;;;;;;80.40;24.60;;;2.20;99.90;;;;;;5094205;28;20039;-79
2022/12/11 03:31:34;;;;;;;60.00;17.30;;;2.20;99.90;;;;;;5092999;28;20019;-79
2022/12/11 03:34:07;;;;;;;76.87;25.20;;;2.20;99.90;;;;;;5094089;28;20465;-79
2022/12/11 03:36:36;;;;;;;83.40;25.27;;;2.30;99.90;;;;;;5092921;28;20414;-79
2022/12/11 03:39:11;;;;;;;84.17;27.27;;;2.20;99.90;;;;;;5092834;28;20103;-79
2022/12/11 03:41:38;;;;;;;73.57;24.80;;;2.20;99.90;;;;;;5094002;28;20024;-79
2022/12/11 03:44:05;;;;;;;85.93;27.17;;;2.20;99.90;;;;;;5092573;28;20413;-79
2022/12/11 03:46:34;;;;;;;79.70;27.20;;;2.20;99.90;;;;;;5092711;28;20107;-79
2022/12/11 03:49:12;;;;;;;78.40;24.03;;;2.20;99.90;;;;;;5092702;28;20392;-79
2022/12/11 03:51:41;;;;;;;82.63;25.60;;;2.30;99.90;;;;;;5109509;28;20093;-79
2022/12/11 03:54:07;;;;;;;80.83;25.23;;;2.30;99.90;;;;;;5092294;28;20051;-79
2022/12/11 03:56:34;;;;;;;77.80;23.67;;;2.30;99.90;;;;;;5093685;28;20104;-79
2022/12/11 03:59:00;;;;;;;73.83;23.93;;;2.30;99.90;;;;;;5109751;28;20032;-79
2022/12/11 04:01:26;;;;;;;74.47;24.43;;;2.30;99.90;;;;;;5075802;28;20058;-79
2022/12/11 04:03:51;;;;;;;80.93;24.90;;;2.30;99.90;;;;;;5092364;28;20039;-79
2022/12/11 04:06:17;;;;;;;84.13;25.40;;;2.30;99.90;;;;;;5092372;28;20087;-79
2022/12/11 04:08:43;;;;;;;74.90;24.87;;;2.40;99.90;;;;;;5075428;28;20124;-79
2022/12/11 04:16:38;;;;;;;;;;;2.40;99.90;;;;;;5093263;28;20043;-79
2022/12/11 04:24:32;;;;;;;80.32;26.23;;;2.40;99.90;;;;;;5093285;28;20113;-79
2022/12/11 04:26:58;;;;;;;73.80;25.10;;;2.40;99.90;;;;;;5109234;28;20059;-79
2022/12/11 04:29:24;;;;;;;85.20;26.80;;;2.40;99.90;;;;;;5093388;28;20487;-79
2022/12/11 04:31:49;;;;;;;71.50;24.83;;;2.40;99.90;;;;;;5109145;28;20035;-79
2022/12/11 04:34:16;;;;;;;79.27;25.87;;;2.40;99.90;;;;;;5092105;28;20031;-79
2022/12/11 04:36:42;;;;;;;71.73;23.60;;;2.40;99.90;;;;;;5092112;28;20027;-79
2022/12/11 04:39:07;;;;;;;81.63;27.67;;;2.40;99.90;;;;;;5092302;28;20119;-79
2022/12/11 04:41:34;;;;;;;73.47;26.40;;;2.60;99.90;;;;;;5091999;28;20025;-79
2022/12/11 04:44:00;;;;;;;73.07;25.63;;;2.50;99.90;;;;;;5092135;28;20066;-79
2022/12/11 04:46:25;;;;;;;83.93;27.87;;;2.50;99.90;;;;;;5092008;28;20028;-79
2022/12/11 04:48:52;;;;;;;69.43;25.27;;;2.50;99.90;;;;;;5109058;28;20089;-79
2022/12/11 04:51:18;;;;;;;68.37;24.13;;;2.50;99.90;;;;;;5091795;28;20059;-79
2022/12/11 04:53:44;;;;;;;71.37;25.63;;;2.70;99.90;;;;;;5108996;28;20492;-79
2022/12/11 04:56:12;;;;;;;79.40;27.60;;;2.60;99.90;;;;;;5091670;28;20032;-79
2022/12/11 04:58:39;;;;;;;62.87;23.57;;;2.60;99.90;;;;;;5091753;28;20387;-79
2022/12/11 05:01:10;;;;;;;74.43;25.67;;;2.60;99.90;;;;;;5091909;28;20036;-79
2022/12/11 05:03:35;;;;;;;69.43;24.70;;;2.50;99.90;;;;;;5093031;28;20391;-79
2022/12/11 05:06:01;;;;;;;68.90;24.70;;;2.60;99.90;;;;;;5094021;28;20028;-79
2022/12/11 05:08:27;;;;;;;68.27;25.50;;;2.60;99.90;;;;;;5078816;28;20025;-79
2022/12/11 05:10:57;;;;;;;63.53;25.57;;;2.60;99.90;;;;;;5096912;28;20529;-79
2022/12/11 05:13:24;;;;;;;64.37;25.57;;;2.70;99.90;;;;;;5096854;28;20391;-79
2022/12/11 05:15:49;;;;;;;70.07;24.53;;;2.60;99.90;;;;;;5112626;28;20046;-79
2022/12/11 05:18:15;;;;;;;59.97;24.40;;;2.60;99.90;;;;;;5095903;28;20543;-79
2022/12/11 05:20:40;;;;;;;63.97;23.80;;;2.70;99.90;;;;;;5095457;28;20035;-79
2022/12/11 05:23:06;;;;;;;62.47;22.90;;;2.60;99.90;;;;;;5103904;28;20028;-79
2022/12/11 05:25:32;;;;;;;69.43;26.03;;;2.60;99.90;;;;;;5078421;28;20510;-79
2022/12/11 05:27:57;;;;;;;61.67;24.87;;;2.60;99.90;;;;;;5078384;28;20024;-79
2022/12/11 05:30:23;;;;;;;66.70;25.40;;;2.60;99.90;;;;;;5078672;28;20476;-79
2022/12/11 05:32:48;;;;;;;66.23;26.97;;;2.60;99.90;;;;;;5078298;28;20052;-78
2022/12/11 05:35:14;;;;;;;59.23;25.90;;;2.60;99.90;;;;;;5078215;28;20035;-79
2022/12/11 05:37:40;;;;;;;62.80;26.20;;;2.60;99.90;;;;;;5095230;28;20051;-78
2022/12/11 05:40:06;;;;;;;56.60;24.47;;;2.60;99.90;;;;;;5078656;28;20123;-78
2022/12/11 05:42:33;;;;;;;57.73;23.23;;;2.60;99.90;;;;;;5096245;28;20024;-78
2022/12/11 05:44:58;;;;;;;57.03;23.47;;;2.70;99.90;;;;;;5094805;28;20016;-79
2022/12/11 05:47:24;;;;;;;66.63;26.20;;;2.70;99.90;;;;;;5094872;28;20429;-79
2022/12/11 05:49:50;;;;;;;62.03;24.23;;;2.60;99.90;;;;;;5094935;28;20027;-78
2022/12/11 05:52:16;;;;;;;62.50;25.27;;;2.70;99.90;;;;;;5077714;28;20553;-78
2022/12/11 05:54:41;;;;;;;59.53;25.63;;;2.60;99.90;;;;;;5111839;28;20032;-78
2022/12/11 05:57:07;;;;;;;67.90;24.77;;;2.60;99.90;;;;;;5096047;28;20045;-78
2022/12/11 05:59:33;;;;;;;59.83;23.63;;;2.60;99.90;;;;;;5094720;28;20089;-78
2022/12/11 06:01:58;;;;;;;57.07;23.33;;;2.60;99.90;;;;;;5094913;28;20032;-79
2022/12/11 06:04:24;;;;;;;54.43;23.33;;;2.60;99.90;;;;;;5094621;28;20476;-78
2022/12/11 06:06:52;;;;;;;62.10;26.07;;;2.60;99.90;;;;;;5094802;28;20107;-78
2022/12/11 06:09:18;;;;;;;51.97;23.13;;;2.60;99.90;;;;;;5095856;28;20100;-79
2022/12/11 06:11:43;;;;;;;56.23;25.40;;;2.60;99.90;;;;;;5094731;28;20123;-78
2022/12/11 06:14:10;;;;;;;55.77;25.33;;;2.70;99.90;;;;;;5111672;28;20608;-78
2022/12/11 06:16:36;;;;;;;53.33;22.43;;;2.60;99.90;;;;;;5095600;28;20020;-78
2022/12/11 06:19:02;;;;;;;51.43;22.97;;;2.70;99.90;;;;;;5094312;28;20020;-78
2022/12/11 06:21:31;;;;;;;50.87;21.67;;;2.60;99.90;;;;;;5094354;28;20041;-79
2022/12/11 06:23:59;;;;;;;48.03;23.63;;;2.60;99.90;;;;;;5095872;28;20075;-78
2022/12/11 06:26:26;;;;;;;49.30;22.47;;;2.60;99.90;;;;;;5094042;28;20020;-78
2022/12/11 06:28:53;;;;;;;47.10;22.03;;;2.60;99.90;;;;;;5094011;28;20020;-78
2022/12/11 06:31:19;;;;;;;48.37;23.23;;;2.60;99.90;;;;;;5093950;28;20065;-78
2022/12/11 06:33:45;;;;;;;46.40;20.83;;;2.60;99.90;;;;;;5111263;28;20036;-78
2022/12/11 06:36:14;;;;;;;45.37;22.13;;;2.60;99.90;;;;;;5111018;28;20039;-78
2022/12/11 06:38:40;;;;;;;49.10;22.23;;;2.60;99.90;;;;;;5095086;28;20107;-78
2022/12/11 06:41:06;;;;;;;46.67;22.17;;;2.60;99.90;;;;;;5111022;28;20035;-78
2022/12/11 06:43:34;;;;;;;43.20;22.10;;;2.60;99.90;;;;;;5094876;28;20027;-78
2022/12/11 06:46:11;;;;;;;48.60;22.43;;;2.50;99.90;;;;;;5093390;28;20099;-78
2022/12/11 06:48:37;;;;;;;38.40;19.17;;;2.50;99.90;;;;;;5093908;28;20028;-78
2022/12/11 06:51:07;;;;;;;42.13;19.23;;;2.60;99.90;;;;;;5095069;28;20044;-78
2022/12/11 06:53:34;;;;;;;43.00;20.80;;;2.50;99.90;;;;;;5093547;28;20058;-78
2022/12/11 06:56:05;;;;;;;41.70;18.83;;;2.50;99.90;;;;;;5093555;28;20027;-78
2022/12/11 06:58:33;;;;;;;38.10;18.37;;;2.50;99.90;;;;;;5093525;28;20020;-77
2022/12/11 07:00:59;;;;;;;41.97;20.10;;;2.60;99.90;;;;;;5076588;28;20020;-78
2022/12/11 07:03:24;;;;;;;39.00;18.93;;;2.50;99.90;;;;;;5093921;28;20035;-77
2022/12/11 07:05:50;;;;;;;42.90;20.27;;;2.50;99.90;;;;;;5093378;28;20031;-77
2022/12/11 07:08:15;;;;;;;37.70;19.43;;;2.50;99.90;;;;;;5093396;28;20028;-79
2022/12/11 07:10:41;;;;;;;44.40;20.63;;;2.50;99.90;;;;;;5093250;28;20013;-77
2022/12/11 07:13:07;;;;;;;44.63;20.80;;;2.50;99.90;;;;;;5089857;28;20448;-77
2022/12/11 07:15:33;;;;;;;37.50;17.37;;;2.50;99.90;;;;;;5089866;28;20399;-77
2022/12/11 07:17:58;;;;;;;40.33;18.83;;;2.50;99.90;;;;;;5092242;28;20047;-77
2022/12/11 07:20:24;;;;;;;36.77;18.17;;;2.40;99.90;;;;;;5092928;28;20032;-77
2022/12/11 07:22:49;;;;;;;36.83;18.07;;;2.50;99.90;;;;;;5076151;28;20541;-77
2022/12/11 07:25:15;;;;;;;35.10;17.40;;;2.40;99.90;;;;;;5059471;28;20027;-77
2022/12/11 07:27:41;;;;;;;35.37;16.90;;;2.40;99.90;;;;;;5092587;28;20047;-77
2022/12/11 07:30:08;;;;;;;34.57;15.27;;;2.30;99.90;;;;;;5076133;28;20370;-77
2022/12/11 07:32:33;;;;;;;35.90;17.27;;;2.40;99.90;;;;;;5094203;28;20024;-78
2022/12/11 07:34:59;;;;;;;33.67;15.97;;;2.40;99.90;;;;;;5092749;28;20610;-77
2022/12/11 07:37:25;;;;;;;36.10;17.70;;;2.40;99.90;;;;;;5094208;28;20028;-77
2022/12/11 07:39:50;;;;;;;35.27;16.93;;;2.40;99.90;;;;;;5092738;28;20028;-77
2022/12/11 07:42:16;;;;;;;33.50;16.90;;;2.40;99.90;;;;;;5075688;28;20101;-77
2022/12/11 07:44:41;;;;;;;32.70;16.67;;;2.30;99.90;;;;;;5092748;28;20024;-77
2022/12/11 07:47:07;;;;;;;34.60;17.17;;;2.40;99.90;;;;;;5092574;28;20035;-77
2022/12/11 07:49:33;;;;;;;37.53;18.17;;;2.40;99.90;;;;;;5092571;28;20480;-77
2022/12/11 07:51:58;;;;;;;35.57;17.43;;;2.40;99.90;;;;;;5092533;28;20080;-76
2022/12/11 07:54:24;;;;;;;32.13;16.27;;;2.60;99.90;;;;;;5092551;28;20026;-76
2022/12/11 07:56:49;;;;;;;31.47;16.17;;;2.40;99.90;;;;;;5092423;28;20077;-76
2022/12/11 07:59:15;;;;;;;35.97;16.27;;;2.50;99.90;;;;;;5092426;28;20037;-77
2022/12/11 08:01:42;;;;;;;34.33;17.17;;;2.50;99.90;;;;;;5109718;28;20032;-77
2022/12/11 08:04:09;;;;;;;34.40;16.70;;;2.50;99.90;;;;;;5109668;28;20476;-77
2022/12/11 08:06:37;;;;;;;35.17;17.30;;;2.50;99.90;;;;;;5092496;28;20099;-77
2022/12/11 08:09:06;;;;;;;32.43;16.00;;;2.40;99.90;;;;;;5092267;28;20065;-77
2022/12/11 08:11:32;;;;;;;31.67;15.57;;;2.40;99.90;;;;;;5092372;28;20027;-77
2022/12/11 08:13:58;;;;;;;30.43;15.23;;;2.40;99.90;;;;;;5093555;28;20020;-77
2022/12/11 08:16:25;;;;;;;26.90;13.27;;;2.30;99.90;;;;;;5075622;28;20031;-77
2022/12/11 08:18:51;;;;;;;28.60;13.80;;;2.40;99.90;;;;;;5092140;28;20490;-77
2022/12/11 08:21:22;;;;;;;29.43;14.50;;;2.40;99.90;;;;;;5075448;28;20056;-77
2022/12/11 08:23:49;;;;;;;26.47;13.60;;;2.40;99.90;;;;;;5091906;28;20495;-77
2022/12/11 08:26:24;;;;;;;29.67;14.13;;;2.40;99.90;;;;;;5075681;28;20031;-77
2022/12/11 08:28:50;;;;;;;28.13;13.30;;;2.30;99.90;;;;;;5092207;28;20039;-77
2022/12/11 08:31:17;;;;;;;31.47;13.93;;;2.30;99.90;;;;;;5092098;28;20081;-77
2022/12/11 08:33:44;;;;;;;27.90;14.60;;;2.30;99.90;;;;;;5092195;28;20028;-76
2022/12/11 08:36:13;;;;;;;25.83;13.00;;;2.30;99.90;;;;;;5092013;28;20884;-77
2022/12/11 08:38:39;;;;;;;30.73;12.97;;;2.40;99.90;;;;;;5092028;28;20365;-76
2022/12/11 08:41:19;;;;;;;21.80;11.17;;;2.30;99.90;;;;;;5077744;28;20028;-77
2022/12/11 08:43:47;;;;;;;24.87;11.87;;;2.40;99.90;;;;;;5097469;28;20107;-76
2022/12/11 08:46:13;;;;;;;26.77;13.20;;;2.40;99.90;;;;;;5079438;28;20539;-77
2022/12/11 08:48:41;;;;;;;25.30;12.77;;;2.40;99.90;;;;;;5097600;28;20046;-77
2022/12/11 08:51:12;;;;;;;26.03;12.70;;;2.40;99.90;;;;;;5097265;28;20491;-77
2022/12/11 08:53:38;;;;;;;23.53;13.00;;;2.40;99.90;;;;;;5096129;28;20044;-77
2022/12/11 08:56:10;;;;;;;26.97;14.03;;;2.40;99.90;;;;;;5080766;28;20070;-77
2022/12/11 08:58:36;;;;;;;25.20;12.37;;;2.50;99.90;;;;;;5098077;28;20049;-78
2022/12/11 09:01:09;;;;;;;26.60;13.10;;;2.50;99.90;;;;;;5098506;28;20056;-76
2022/12/11 09:03:36;;;;;;;26.27;13.23;;;2.50;99.90;;;;;;5097260;28;20115;-76
2022/12/11 09:06:10;;;;;;;24.63;12.53;;;2.50;99.90;;;;;;5096174;28;20021;-77
2022/12/11 09:08:36;;;;;;;23.63;12.47;;;2.60;99.90;;;;;;5095853;28;20017;-76
2022/12/11 09:11:32;;;;;;;25.97;12.43;;;2.60;99.90;;;;;;5096027;28;20024;-76
2022/12/11 09:13:58;;;;;;;22.07;11.00;;;2.60;99.90;;;;;;5095191;28;20506;-75
2022/12/11 09:16:25;;;;;;;25.20;11.43;;;2.50;99.90;;;;;;5096920;28;20061;-76
2022/12/11 09:18:54;;;;;;;25.57;12.23;;;2.60;99.90;;;;;;5112599;28;20058;-77
2022/12/11 09:21:22;;;;;;;25.73;12.57;;;2.60;99.90;;;;;;5095523;28;20357;-77
2022/12/11 09:23:51;;;;;;;25.13;12.60;;;2.70;99.90;;;;;;5095335;28;20161;-77
2022/12/11 09:26:17;;;;;;;29.53;13.73;;;2.70;99.90;;;;;;5095265;28;20028;-76
2022/12/11 09:28:43;;;;;;;22.90;11.73;;;2.60;99.90;;;;;;5095426;28;20024;-77
2022/12/11 09:31:23;;;;;;;25.37;12.37;;;2.70;99.90;;;;;;5112205;28;20016;-77
2022/12/11 09:33:50;;;;;;;29.70;13.67;;;2.70;99.90;;;;;;5095322;28;20020;-76
2022/12/11 09:36:17;;;;;;;27.20;12.80;;;2.90;99.90;;;;;;5096452;28;20024;-76
2022/12/11 09:38:42;;;;;;;26.57;13.37;;;2.70;99.90;;;;;;5096621;28;20103;-77
2022/12/11 09:41:20;;;;;;;24.80;12.13;;;2.80;99.90;;;;;;5095269;28;20051;-77
2022/12/11 09:44:01;;;;;;;26.00;12.97;;;2.80;99.90;;;;;;5096168;28;20032;-76
2022/12/11 09:46:28;;;;;;;24.93;12.67;;;2.90;99.90;;;;;;5096323;28;20027;-77
2022/12/11 09:48:54;;;;;;;25.43;14.07;;;2.90;99.90;;;;;;5095072;28;20073;-78
2022/12/11 09:51:28;;;;;;;25.80;13.27;;;2.90;99.90;;;;;;5110346;28;20040;-77
2022/12/11 09:53:58;;;;;;;24.93;13.47;;;3.00;99.90;;;;;;5093708;28;20019;-77
2022/12/11 09:56:37;;;;;;;25.20;12.63;;;3.00;99.90;;;;;;5093571;28;20024;-77
2022/12/11 09:59:28;;;;;;;25.10;12.97;;;3.00;99.90;;;;;;5093752;28;20492;-78
2022/12/11 10:02:13;;;;;;;29.03;13.60;;;3.00;99.90;;;;;;5093577;28;20068;-78
2022/12/11 10:04:58;;;;;;;26.30;13.10;;;3.00;99.90;;;;;;5093338;28;20016;-78
2022/12/11 10:07:39;;;;;;;;;;;3.10;99.90;;;;;;5093910;28;20495;-79
2022/12/11 10:10:14;;;;;;;28.87;12.90;;;3.10;99.80;;;;;;5094635;28;19984;-79
2022/12/11 10:12:56;;;;;;;27.40;12.83;;;3.10;99.60;;;;;;5093399;28;20503;-79
2022/12/11 10:15:52;;;;;;;24.43;12.47;;;3.20;99.50;;;;;;5093598;28;20020;-79
2022/12/11 10:18:22;;;;;;;25.27;13.10;;;3.30;99.40;;;;;;5094573;28;20103;-79
2022/12/11 10:20:50;;;;;;;26.37;13.17;;;3.30;99.40;;;;;;5094324;28;20024;-79
2022/12/11 10:23:19;;;;;;;26.33;14.23;;;3.30;99.30;;;;;;5093113;28;20036;-79
2022/12/11 10:25:52;;;;;;;27.30;13.33;;;3.30;99.10;;;;;;5093149;28;20020;-79
2022/12/11 10:28:20;;;;;;;25.97;14.20;;;3.40;99.10;;;;;;5092827;28;20020;-79
2022/12/11 10:30:55;;;;;;;31.70;15.23;;;3.40;98.70;;;;;;5093049;28;20027;-79
2022/12/11 10:33:37;;;;;;;28.50;14.67;;;3.30;98.40;;;;;;5094291;28;20028;-79
2022/12/11 10:36:05;;;;;;;26.00;13.43;;;3.40;98.40;;;;;;5094453;28;20039;-79
2022/12/11 10:38:37;;;;;;;32.30;15.37;;;3.30;98.40;;;;;;5093021;28;20073;-79
2022/12/11 10:41:23;;;;;;;26.37;14.10;;;3.40;98.80;;;;;;5092762;28;20536;-79
2022/12/11 10:43:52;;;;;;;29.87;14.37;;;3.40;98.40;;;;;;5094099;28;20024;-79
2022/12/11 10:46:23;;;;;;;29.37;15.27;;;3.40;98.20;;;;;;5092715;28;20101;-79
2022/12/11 10:48:59;;;;;;;29.77;15.00;;;3.40;98.10;;;;;;5094050;28;20031;-78
2022/12/11 10:51:34;;;;;;;27.30;13.83;;;3.40;97.90;;;;;;5055643;28;1102884;-78
2022/12/11 10:54:05;;;;;;;25.93;13.97;;;3.40;97.80;;;;;;5095294;28;20057;-78
2022/12/11 10:56:33;;;;;;;27.67;13.93;;;3.40;97.70;;;;;;5093614;28;20020;-78
2022/12/11 10:59:00;;;;;;;28.20;15.03;;;3.40;97.70;;;;;;5094806;28;20032;-79
2022/12/11 11:01:31;;;;;;;31.07;16.20;;;3.40;97.70;;;;;;5094658;28;20024;-79
2022/12/11 11:04:12;;;;;;;25.73;14.17;;;3.40;97.70;;;;;;5075749;28;20032;-78
2022/12/11 11:06:38;;;;;;;28.03;17.33;;;3.40;97.70;;;;;;5093470;28;20024;-77
2022/12/11 11:09:04;;;;;;;27.70;15.73;;;3.40;97.60;;;;;;5076505;28;20051;-77
2022/12/11 11:11:32;;;;;;;29.70;14.97;;;3.30;97.70;;;;;;5094678;28;20496;-77
2022/12/11 11:14:11;;;;;;;26.80;14.80;;;3.40;97.70;;;;;;5093242;28;20383;-77
2022/12/11 11:16:38;;;;;;;27.83;14.60;;;3.40;97.80;;;;;;5093209;28;20036;-77
2022/12/11 11:19:05;;;;;;;29.37;15.53;;;3.40;97.70;;;;;;5093607;28;20070;-77
2022/12/11 11:21:33;;;;;;;29.57;15.90;;;3.40;97.80;;;;;;5076660;28;20024;-77
2022/12/11 11:23:59;;;;;;;30.37;15.30;;;3.40;97.80;;;;;;5094276;28;20036;-77
2022/12/11 11:26:26;;;;;;;31.50;16.33;;;3.40;97.90;;;;;;5094337;28;20050;-77
2022/12/11 11:28:56;;;;;;;29.60;15.17;;;3.40;98.00;;;;;;5092988;28;20052;-77
2022/12/11 11:31:33;;;;;;;26.87;15.07;;;3.50;98.00;;;;;;5094231;28;20024;-77
2022/12/11 11:34:06;;;;;;;26.87;15.07;;;3.30;97.90;;;;;;5094186;28;20103;-77
2022/12/11 11:36:34;;;;;;;26.92;14.63;;;3.40;98.00;;;;;;5094190;28;20020;-77
2022/12/11 11:39:25;;;;;;;30.67;17.10;;;3.50;97.90;;;;;;5092712;28;20024;-77
2022/12/11 11:41:59;;;;;;;31.57;18.60;;;3.50;97.90;;;;;;5093856;28;20361;-77
2022/12/11 11:44:43;;;;;;;30.47;16.53;;;3.50;97.90;;;;;;5093010;28;20035;-77
2022/12/11 11:47:49;;;;;;;27.38;14.05;;;3.50;97.80;;;;;;5092660;28;20013;-77
2022/12/11 11:50:24;;;;;;;34.90;18.87;;;3.40;97.70;;;;;;5071983;28;20024;-77
2022/12/11 11:53:12;;;;;;;30.30;16.63;;;3.40;97.40;;;;;;5072386;28;20040;-76
2022/12/11 11:55:46;;;;;;;36.17;19.13;;;3.40;97.40;;;;;;5088884;28;20031;-77
2022/12/11 11:58:14;;;;;;;;;;;3.40;97.20;;;;;;5093977;28;20059;-78
2022/12/11 12:00:40;;;;;;;32.87;16.13;;;3.40;97.20;;;;;;5092501;28;19911;-77
2022/12/11 12:03:21;;;;;;;30.90;15.60;;;3.30;97.20;;;;;;5075505;28;20119;-77
2022/12/11 12:06:12;;;;;;;30.70;16.07;;;3.30;97.20;;;;;;5093650;28;20040;-78
2022/12/11 12:08:56;;;;;;;28.77;14.47;;;3.30;97.30;;;;;;5092393;28;20119;-78
2022/12/11 12:11:34;;;;;;;25.63;13.65;;;3.30;97.40;;;;;;5092029;28;20020;-78
2022/12/11 12:14:11;;;;;;;31.23;15.37;;;3.30;97.40;;;;;;5093595;28;20024;-78
2022/12/11 12:17:08;;;;;;;32.33;16.37;;;3.30;97.40;;;;;;5093024;28;20036;-78
2022/12/11 12:19:47;;;;;;;30.27;15.43;;;3.30;97.40;;;;;;5093361;28;20032;-78
2022/12/11 12:22:18;;;;;;;28.07;15.40;;;3.30;97.40;;;;;;5093445;28;20035;-77
2022/12/11 12:24:59;;;;;;;27.53;14.60;;;3.30;97.40;;;;;;5093960;28;20028;-78
2022/12/11 12:27:34;;;;;;;28.30;14.10;;;3.30;97.40;;;;;;5091639;28;20024;-78
2022/12/11 12:30:15;;;;;;;27.00;14.10;;;3.30;97.30;;;;;;5092029;28;20028;-78
2022/12/11 12:32:46;;;;;;;29.83;14.50;;;3.20;97.30;;;;;;5092133;28;20114;-78
2022/12/11 12:35:49;;;;;;;32.63;16.00;;;3.30;97.30;;;;;;5092040;28;20047;-77
2022/12/11 12:38:26;;;;;;;28.97;15.07;;;3.20;97.20;;;;;;5092070;28;20408;-77
2022/12/11 12:41:34;;;;;;;31.60;15.07;;;3.20;97.10;;;;;;5093409;28;20024;-78
2022/12/11 12:44:19;;;;;;;31.17;15.40;;;3.20;97.20;;;;;;5085920;28;20036;-78
2022/12/11 12:46:54;;;;;;;30.83;15.53;;;3.20;97.10;;;;;;5092033;28;20016;-78
2022/12/11 12:49:44;;;;;;;30.50;14.43;;;3.20;97.20;;;;;;5093197;28;20080;-78
2022/12/11 12:52:25;;;;;;;31.10;15.80;;;3.30;97.30;;;;;;5093040;28;20055;-78
2022/12/11 12:55:13;;;;;;;31.20;15.77;;;3.30;97.30;;;;;;5091651;28;20103;-78
2022/12/11 12:57:46;;;;;;;29.07;14.80;;;3.30;97.40;;;;;;5091516;28;20077;-77
2022/12/11 13:00:12;;;;;;;32.97;16.93;;;3.30;97.30;;;;;;5092743;28;20476;-78
2022/12/11 13:02:49;;;;;;;29.57;14.27;;;3.30;97.30;;;;;;5091379;28;20480;-78
2022/12/11 13:05:33;;;;;;;35.03;15.67;;;3.30;97.20;;;;;;5092043;28;20487;-78